Union City, PA

6:27 AM EST on March 02, 2015 (GMT -0500)
rural | Change Station
CLOSE
Current Station
Personal Weather Station
Location: Union City, PA
Elevation: 1306 ft
Nearby Weather Stations

Elev 1306 ft 41.98 °N, 79.89 °W | Updated 4 seconds ago

Overcast
Overcast
18.7 °F
Feels Like 19 °F
N
2.7
Wind Variable Wind from West
Gusts 4.9 mph

Today
High -- | Low -- °F
--% Chance of Precip.
Yesterday
High -- | Low -- °F
Precip. -- in
6:53 AM 6:10 PM
Waxing Gibbous, 91% visible
Pressure 30.27 in
Visibility 7.0 miles
Clouds Mostly Cloudy 2800 ft
Overcast 4700 ft
Windchill 19 °F
Dew Point 11 °F
Humidity 71%
Rainfall 0.00 in
Snow Depth Not available.
UV 0.0 out of 12
Pollen .30 out of 12
Air Quality Not available.
Flu Activity Not available.
SPECI KERI 021113Z 25012G23KT 7SM BKN028 OVC047 M06/M09 A3027 RMK AO2 T10611094

More Conditions Fewer Conditions

Pressure 30.27 in
Visibility 7.0 miles
Clouds Mostly Cloudy 2800 ft
Overcast 4700 ft
Windchill 19 °F
Dew Point 11 °F
Humidity 71%
Rainfall 0.00 in
Snow Depth Not available.
UV 0.0 out of 12
Pollen .30 out of 12
Air Quality Not available.
Flu Activity Not available.
SPECI KERI 021113Z 25012G23KT 7SM BKN028 OVC047 M06/M09 A3027 RMK AO2 T10611094

More Conditions Fewer Conditions

Nowcast | as of 6:09 am EST on March 2, 2015

Some snow showers will occur through the morning commute. Snowfall accumulations will be generally less than an inch. Some roads could become snow covered and slippery...motorists will have to use caution.

×

10-Day Weather Forecast

Almanac

Astronomy

Mar. 02, 2015 Rise Set
Actual Time
Civil Twilight
Nautical Twilight
Astronomical Twilight
Moon
Length of Visible Light
Length of Day
Tomorrow will be .
, % of the Moon is Illuminated

Today's Extremes

State Highs State Lows

Community

WunderPhotos

Upload Photos

1,801,756 photos uploaded!

WunderBlogs® & News

Nearby

Air Quality

  Air Quality AQ Index Pollutant
Not available.

Snow Depth

Station Depth Elevation

Earthquake Activity

City Distance Mag. Time & Date
Minimum magnitude displayed is 2.5.

Coastal Water Temperatures

Place Temperature

Nearby Weather Stations